Time;durP1;ratioP1;P1;durP2;ratioP2;P2;SDS_P1;SDS_P2;PMS_P1;PMS_P2;Temp;Humidity;BMP_temperature;BMP_pressure;BME280_temperature;BME280_humidity;BME280_pressure;Samples;Min_cycle;Max_cycle;Signal;HPM_P1;HPM_P2
2021/12/01 00:01:45;;;;;;;;;;;;;;;2.18;100.00;99391.53;4485502;31;19990;-70
2021/12/01 00:04:13;;;;;;;;;;;;;;;2.15;100.00;99381.97;4485624;31;19993;-70
2021/12/01 00:06:40;;;;;;;;;;;;;;;2.19;100.00;99389.78;4485383;31;20332;-70
2021/12/01 00:09:07;;;;;;;;;;;;;;;2.28;100.00;99380.31;4485266;31;20002;-70
2021/12/01 00:11:35;;;;;;;;;;;;;;;2.28;100.00;99385.50;4485300;31;20350;-70
2021/12/01 00:14:02;;;;;;;;;;;;;;;2.25;100.00;99384.63;4485270;31;19980;-70
2021/12/01 00:16:29;;;;;;;;;;;;;;;2.29;100.00;99383.78;4484994;31;19983;-70
2021/12/01 00:18:57;;;;;;;;;;;;;;;2.29;100.00;99382.03;4485454;31;20332;-70
2021/12/01 00:21:25;;;;;;;;;;;;;;;2.39;100.00;99386.44;4485421;31;20316;-70
2021/12/01 00:23:52;;;;;;;;;;;;;;;2.35;100.00;99389.03;4485105;31;20005;-70
2021/12/01 00:26:19;;;;;;;;;;;;;;;2.33;100.00;99406.31;4485985;31;19980;-70
2021/12/01 00:28:47;;;;;;;;;;;;;;;2.47;100.00;99401.19;4487194;31;20397;-70
2021/12/01 00:31:14;;;;;;;;;;;;;;;2.37;100.00;99401.19;4487294;31;19972;-70
2021/12/01 00:33:42;;;;;;;;;;;;;;;2.32;100.00;99410.66;4487342;31;20333;-70
2021/12/01 00:36:13;;;;;;;;;;;;;;;2.35;100.00;99405.47;4487393;31;20428;-70
2021/12/01 00:38:42;;;;;;;;;;;;;;;2.37;100.00;99413.31;4487262;31;20002;-70
2021/12/01 00:41:10;;;;;;;;;;;;;;;2.40;100.00;99415.91;4487126;31;20035;-70
2021/12/01 00:43:39;;;;;;;;;;;;;;;2.36;100.00;99412.41;4487354;31;19975;-70
2021/12/01 00:46:19;;;;;;;;;;;;;;;2.34;100.00;99411.56;4487243;31;20351;-70
2021/12/01 00:48:47;;;;;;;;;;;;;;;2.35;100.00;99417.62;4487159;31;20004;-70
2021/12/01 00:51:16;;;;;;;;;;;;;;;2.38;100.00;99418.50;4487175;31;19975;-70
2021/12/01 00:53:44;;;;;;;;;;;;;;;2.37;100.00;99421.97;4487123;31;19986;-70
2021/12/01 00:56:11;;;;;;;;;;;;;;;2.39;100.00;99417.62;4487056;31;20002;-70
2021/12/01 00:58:39;;;;;;;;;;;;;;;2.48;100.00;99422.03;4487027;31;19987;-70
2021/12/01 01:01:07;;;;;;;;;;;;;;;2.49;100.00;99420.28;4486945;31;19991;-70
2021/12/01 01:03:35;;;;;;;;;;;;;;;2.52;100.00;99422.91;4487050;31;20303;-70
2021/12/01 01:06:02;;;;;;;;;;;;;;;2.46;100.00;99426.34;4486834;31;19988;-70
2021/12/01 01:08:30;;;;;;;;;;;;;;;2.48;100.00;99423.75;4486997;31;20039;-70
2021/12/01 01:16:25;;;;;;;;;;;;;;;2.52;100.00;99423.78;4486831;31;20039;-69
2021/12/01 01:19:05;;;;;;;;;;;;;;;2.65;100.00;99422.13;4487062;31;19983;-70
2021/12/01 01:21:35;;;;;;;;;;;;;;;2.62;100.00;99428.16;4487094;31;19990;-70
2021/12/01 01:24:03;;;;;;;;;;;;;;;2.59;100.00;99422.06;4486767;31;20432;-70
2021/12/01 01:26:31;;;;;;;;;;;;;;;2.75;100.00;99433.41;4486862;31;19984;-70
2021/12/01 01:28:59;;;;;;;;;;;;;;;2.70;100.00;99435.13;4486793;31;20055;-70
2021/12/01 01:31:27;;;;;;;;;;;;;;;2.63;100.00;99437.69;4486637;31;19976;-70
2021/12/01 01:33:57;;;;;;;;;;;;;;;2.78;100.00;99446.44;4487034;31;20623;-70
2021/12/01 01:36:25;;;;;;;;;;;;;;;2.82;100.00;99451.66;4486901;31;20391;-70
2021/12/01 01:38:53;;;;;;;;;;;;;;;2.79;100.00;99454.25;4485762;31;19988;-70
2021/12/01 01:41:20;;;;;;;;;;;;;;;2.73;100.00;99453.34;4486913;31;20502;-70
2021/12/01 01:43:49;;;;;;;;;;;;;;;2.94;100.00;99449.97;4486703;31;20455;-70
2021/12/01 01:46:16;;;;;;;;;;;;;;;3.20;100.00;99458.72;4486858;31;19984;-70
2021/12/01 01:51:19;;;;;;;;;;;;;;;3.54;98.89;99449.28;4486659;31;19994;-70
2021/12/01 01:53:48;;;;;;;;;;;;;;;3.76;98.16;99457.09;4486614;31;19987;-70
2021/12/01 01:56:16;;;;;;;;;;;;;;;3.88;95.50;99444.06;4486468;31;19987;-70
2021/12/01 01:58:43;;;;;;;;;;;;;;;4.10;94.36;99447.56;4486526;31;20020;-70
2021/12/01 02:01:18;;;;;;;;;;;;;;;4.12;94.48;99453.63;4486728;31;20315;-70
2021/12/01 02:03:49;;;;;;;;;;;;;;;4.17;94.94;99453.59;4486640;31;20338;-70
2021/12/01 02:06:22;;;;;;;;;;;;;;;4.18;93.65;99456.22;4486588;31;19995;-70
2021/12/01 02:08:51;;;;;;;;;;;;;;;4.18;93.03;99457.97;4486710;31;20078;-70
2021/12/01 02:11:20;;;;;;;;;;;;;;;4.22;92.40;99457.97;4486469;31;19990;-70
2021/12/01 02:13:48;;;;;;;;;;;;;;;4.18;92.52;99464.06;4486485;31;19979;-70
2021/12/01 02:16:17;;;;;;;;;;;;;;;4.27;91.93;99448.38;4486354;31;19991;-70
2021/12/01 02:18:44;;;;;;;;;;;;;;;4.30;92.47;99464.03;4486556;31;19983;-70
2021/12/01 02:21:13;;;;;;;;;;;;;;;4.30;91.40;99464.03;4486392;31;20328;-70
2021/12/01 02:23:44;;;;;;;;;;;;;;;4.40;90.83;99471.84;4486490;31;19989;-70
2021/12/01 02:26:13;;;;;;;;;;;;;;;4.40;89.87;99467.50;4486495;31;20062;-70
2021/12/01 02:28:42;;;;;;;;;;;;;;;4.36;90.47;99459.69;4486548;31;19987;-70
2021/12/01 02:31:09;;;;;;;;;;;;;;;4.28;91.21;99459.69;4486297;31;20063;-70
2021/12/01 02:33:37;;;;;;;;;;;;;;;4.23;90.44;99457.06;4486367;31;20036;-70
2021/12/01 02:36:07;;;;;;;;;;;;;;;4.28;90.67;99457.09;4486379;31;20051;-70
2021/12/01 02:38:35;;;;;;;;;;;;;;;4.28;89.72;99457.97;4486425;31;19995;-70
2021/12/01 02:41:03;;;;;;;;;;;;;;;4.35;89.42;99468.34;4486425;31;19994;-70
2021/12/01 02:43:31;;;;;;;;;;;;;;;4.22;90.08;99450.13;4486412;31;20397;-70
2021/12/01 02:45:58;;;;;;;;;;;;;;;4.23;90.48;99451.87;4486236;31;20002;-70
2021/12/01 02:48:26;;;;;;;;;;;;;;;4.26;90.65;99448.41;4485739;31;20411;-70
2021/12/01 02:50:53;;;;;;;;;;;;;;;4.25;88.97;99455.34;4486192;31;19971;-70
2021/12/01 02:53:21;;;;;;;;;;;;;;;4.21;90.79;99461.44;4486331;31;19975;-70
2021/12/01 02:55:51;;;;;;;;;;;;;;;4.05;91.70;99457.09;4486496;31;20002;-70
2021/12/01 02:58:19;;;;;;;;;;;;;;;4.16;91.37;99468.37;4486384;31;19987;-70
2021/12/01 03:00:47;;;;;;;;;;;;;;;4.27;89.93;99468.37;4486331;31;20452;-69
2021/12/01 03:03:16;;;;;;;;;;;;;;;4.17;89.63;99461.44;4486135;31;20397;-70
2021/12/01 03:05:48;;;;;;;;;;;;;;;4.12;90.92;99452.75;4486057;31;20500;-70
2021/12/01 03:08:16;;;;;;;;;;;;;;;4.08;91.06;99451.87;4486159;31;20005;-70
2021/12/01 03:10:44;;;;;;;;;;;;;;;4.07;89.90;99450.16;4485947;31;19982;-69
2021/12/01 03:13:13;;;;;;;;;;;;;;;3.95;90.44;99452.75;4486141;31;19979;-70
2021/12/01 03:15:41;;;;;;;;;;;;;;;3.90;92.11;99459.72;4486122;31;20002;-70
2021/12/01 03:18:09;;;;;;;;;;;;;;;3.76;91.73;99459.72;4485953;31;20048;-69
2021/12/01 03:20:37;;;;;;;;;;;;;;;3.67;92.26;99449.28;4486135;31;20055;-69
2021/12/01 03:23:05;;;;;;;;;;;;;;;3.63;92.41;99457.94;4486275;31;19983;-69
2021/12/01 03:25:33;;;;;;;;;;;;;;;3.55;93.18;99460.56;4485983;31;20002;-69
2021/12/01 03:28:01;;;;;;;;;;;;;;;3.42;93.64;99464.84;4486112;31;20354;-70
2021/12/01 03:30:33;;;;;;;;;;;;;;;3.47;93.29;99476.16;4485997;31;19983;-70
2021/12/01 03:33:02;;;;;;;;;;;;;;;3.20;94.56;99469.16;4486055;31;19979;-69
2021/12/01 03:35:29;;;;;;;;;;;;;;;3.22;94.82;99480.44;4486054;31;19988;-69
2021/12/01 03:37:57;;;;;;;;;;;;;;;3.17;95.02;99484.75;4486033;31;20311;-70
2021/12/01 03:40:24;;;;;;;;;;;;;;;3.15;95.41;99488.22;4486064;31;20010;-70
2021/12/01 03:42:51;;;;;;;;;;;;;;;3.01;97.03;99483.84;4486010;31;20313;-70
2021/12/01 03:45:19;;;;;;;;;;;;;;;3.18;95.71;99488.22;4485798;31;20370;-70
2021/12/01 03:47:46;;;;;;;;;;;;;;;3.12;96.12;99484.75;4486005;31;19987;-69
2021/12/01 03:50:14;;;;;;;;;;;;;;;2.98;97.23;99489.03;4485801;31;20024;-69
2021/12/01 03:52:41;;;;;;;;;;;;;;;2.88;97.82;99488.09;4485795;31;20028;-70
2021/12/01 03:55:09;;;;;;;;;;;;;;;2.76;98.82;99489.78;4485949;31;20058;-70
2021/12/01 03:57:37;;;;;;;;;;;;;;;2.68;99.08;99486.25;4485844;31;19995;-70
2021/12/01 04:00:06;;;;;;;;;;;;;;;2.78;97.96;99486.31;4485784;31;20000;-69
2021/12/01 04:02:38;;;;;;;;;;;;;;;2.67;99.31;99485.41;4487567;31;20021;-70
2021/12/01 04:05:06;;;;;;;;;;;;;;;2.69;99.12;99482.81;4487587;31;20319;-70
2021/12/01 04:07:33;;;;;;;;;;;;;;;2.59;99.61;99485.34;4487472;31;20253;-70
2021/12/01 04:10:02;;;;;;;;;;;;;;;2.60;100.00;99491.44;4487397;31;20026;-70
2021/12/01 04:12:30;;;;;;;;;;;;;;;2.59;100.00;99497.50;4487527;31;20299;-70
2021/12/01 04:14:57;;;;;;;;;;;;;;;2.50;100.00;99495.69;4487492;31;19984;-70
2021/12/01 04:17:24;;;;;;;;;;;;;;;2.37;100.00;99494.75;4487425;31;20002;-69
2021/12/01 04:19:52;;;;;;;;;;;;;;;2.46;100.00;99506.06;4487487;31;20006;-70
2021/12/01 04:22:19;;;;;;;;;;;;;;;2.38;100.00;99499.09;4487409;31;19994;-70
2021/12/01 04:24:47;;;;;;;;;;;;;;;2.41;100.00;99490.44;4487265;31;19992;-69
2021/12/01 04:27:15;;;;;;;;;;;;;;;2.44;99.69;99503.47;4487368;31;19984;-70
2021/12/01 04:29:42;;;;;;;;;;;;;;;2.35;100.00;99514.66;4487305;31;20020;-69
2021/12/01 04:32:09;;;;;;;;;;;;;;;2.35;100.00;99519.88;4487419;31;19983;-69
2021/12/01 04:34:37;;;;;;;;;;;;;;;2.38;100.00;99519.88;4487215;31;20045;-69
2021/12/01 04:37:06;;;;;;;;;;;;;;;2.38;100.00;99527.69;4487184;31;20048;-69
2021/12/01 04:39:33;;;;;;;;;;;;;;;2.43;100.00;99535.50;4487399;31;20001;-69
2021/12/01 04:42:05;;;;;;;;;;;;;;;2.51;100.00;99543.34;4487360;31;19968;-70
2021/12/01 04:44:34;;;;;;;;;;;;;;;2.69;99.82;99547.84;4487214;31;19997;-70
2021/12/01 04:47:03;;;;;;;;;;;;;;;2.69;99.50;99551.31;4487103;31;20007;-70
2021/12/01 04:49:32;;;;;;;;;;;;;;;2.91;98.45;99556.66;4486864;31;19987;-69
2021/12/01 04:52:00;;;;;;;;;;;;;;;3.07;97.73;99561.06;4486998;31;20068;-69
2021/12/01 04:54:28;;;;;;;;;;;;;;;3.22;96.71;99566.34;4487020;31;20014;-70
2021/12/01 04:56:55;;;;;;;;;;;;;;;3.37;95.64;99564.69;4486977;31;20459;-70
2021/12/01 04:59:23;;;;;;;;;;;;;;;3.47;94.81;99572.53;4486883;31;20035;-70
2021/12/01 05:01:55;;;;;;;;;;;;;;;3.51;95.38;99581.22;4486909;31;19990;-70
2021/12/01 05:04:23;;;;;;;;;;;;;;;3.56;95.25;99579.50;4487047;31;20059;-70
2021/12/01 05:06:51;;;;;;;;;;;;;;;3.68;93.79;99589.97;4486819;31;19979;-69
2021/12/01 05:09:18;;;;;;;;;;;;;;;3.67;93.84;99590.81;4486815;31;20346;-70
2021/12/01 05:11:46;;;;;;;;;;;;;;;3.80;93.24;99602.16;4486745;31;19983;-69
2021/12/01 05:14:14;;;;;;;;;;;;;;;3.94;92.75;99597.84;4486678;31;20074;-69
2021/12/01 05:16:43;;;;;;;;;;;;;;;3.96;92.33;99603.09;4486707;31;20013;-70
2021/12/01 05:19:11;;;;;;;;;;;;;;;3.88;93.43;99603.03;4487010;31;20014;-69
2021/12/01 05:21:39;;;;;;;;;;;;;;;3.98;92.97;99612.63;4486746;31;19975;-69
2021/12/01 05:24:07;;;;;;;;;;;;;;;3.83;93.35;99610.84;4486712;31;20291;-69
2021/12/01 05:26:34;;;;;;;;;;;;;;;3.96;93.22;99619.59;4486769;31;19991;-70
2021/12/01 05:29:03;;;;;;;;;;;;;;;3.99;93.70;99614.38;4487081;31;20082;-70
2021/12/01 05:31:30;;;;;;;;;;;;;;;3.91;93.70;99618.69;4486632;31;19998;-69
2021/12/01 05:33:58;;;;;;;;;;;;;;;4.04;92.68;99625.66;4486655;31;20009;-69
2021/12/01 05:36:25;;;;;;;;;;;;;;;4.04;92.83;99628.28;4486536;31;20002;-69
2021/12/01 05:38:53;;;;;;;;;;;;;;;4.18;91.95;99627.44;4486900;31;19971;-70
2021/12/01 05:41:20;;;;;;;;;;;;;;;4.10;92.69;99631.75;4486589;31;19979;-70
2021/12/01 05:43:48;;;;;;;;;;;;;;;4.14;92.26;99628.31;4486409;31;19984;-69
2021/12/01 05:46:15;;;;;;;;;;;;;;;4.18;91.75;99643.97;4486003;31;19991;-69
2021/12/01 05:48:42;;;;;;;;;;;;;;;4.26;91.69;99649.19;4469694;31;19991;-69
2021/12/01 05:51:10;;;;;;;;;;;;;;;4.11;92.35;99652.63;4485903;31;19983;-69
2021/12/01 05:53:38;;;;;;;;;;;;;;;4.21;91.85;99657.00;4488305;31;20009;-70
2021/12/01 05:56:05;;;;;;;;;;;;;;;4.23;91.90;99657.00;4502165;31;19991;-70
2021/12/01 05:58:33;;;;;;;;;;;;;;;4.40;91.36;99655.28;4502272;31;19975;-70
2021/12/01 06:01:00;;;;;;;;;;;;;;;4.33;91.75;99661.34;4502233;31;19979;-70
2021/12/01 06:03:28;;;;;;;;;;;;;;;4.33;91.48;99666.56;4498961;31;20002;-70
2021/12/01 06:05:56;;;;;;;;;;;;;;;4.16;92.11;99666.53;4492059;31;19990;-70
2021/12/01 06:08:23;;;;;;;;;;;;;;;4.12;92.41;99672.63;4497811;31;19979;-69
2021/12/01 06:10:51;;;;;;;;;;;;;;;4.20;91.77;99673.50;4502928;31;20025;-70
2021/12/01 06:13:20;;;;;;;;;;;;;;;4.26;91.15;99663.09;4502680;31;20046;-70
2021/12/01 06:15:53;;;;;;;;;;;;;;;4.30;91.05;99671.78;4502960;31;20050;-70
2021/12/01 06:18:20;;;;;;;;;;;;;;;4.40;90.78;99670.06;4502470;31;20024;-70
2021/12/01 06:20:48;;;;;;;;;;;;;;;4.41;90.14;99680.50;4502483;31;20751;-71
2021/12/01 06:23:15;;;;;;;;;;;;;;;4.49;90.12;99680.53;4501878;31;20074;-69
2021/12/01 06:25:43;;;;;;;;;;;;;;;4.43;90.88;99680.50;4502594;31;20005;-69
2021/12/01 06:28:11;;;;;;;;;;;;;;;4.44;90.39;99696.16;4502443;31;20027;-70
2021/12/01 06:30:38;;;;;;;;;;;;;;;4.41;90.89;99693.53;4502011;31;20036;-70
2021/12/01 06:33:06;;;;;;;;;;;;;;;4.39;90.75;99702.25;4502078;31;19983;-70
2021/12/01 06:35:34;;;;;;;;;;;;;;;4.53;90.02;99708.34;4501928;31;20010;-71
2021/12/01 06:38:02;;;;;;;;;;;;;;;4.65;89.82;99712.72;4502070;31;20406;-70
2021/12/01 06:40:30;;;;;;;;;;;;;;;4.67;89.37;99706.63;4501807;31;20326;-70
2021/12/01 06:42:58;;;;;;;;;;;;;;;4.74;89.77;99708.38;4501932;31;19991;-71
2021/12/01 06:45:26;;;;;;;;;;;;;;;4.71;89.04;99702.28;4501988;31;19997;-72
2021/12/01 06:47:53;;;;;;;;;;;;;;;4.73;89.46;99710.97;4502704;31;20581;-71
2021/12/01 06:50:21;;;;;;;;;;;;;;;4.74;89.80;99712.75;4501920;31;19983;-70
2021/12/01 06:52:48;;;;;;;;;;;;;;;4.72;89.41;99706.63;4502483;31;20066;-71
2021/12/01 06:55:16;;;;;;;;;;;;;;;4.61;89.90;99711.84;4502608;31;20009;-70
2021/12/01 06:57:43;;;;;;;;;;;;;;;4.61;89.95;99719.66;4502367;31;20298;-70
2021/12/01 07:00:12;;;;;;;;;;;;;;;4.70;89.65;99729.22;4502360;31;20014;-69
2021/12/01 07:02:39;;;;;;;;;;;;;;;4.77;89.70;99711.00;4501791;31;20032;-70
2021/12/01 07:05:08;;;;;;;;;;;;;;;4.75;89.61;99712.72;4501068;31;19989;-70
2021/12/01 07:07:36;;;;;;;;;;;;;;;4.67;89.97;99708.38;4501579;31;20311;-70
2021/12/01 07:10:05;;;;;;;;;;;;;;;4.75;90.06;99706.63;4501620;31;20115;-70
2021/12/01 07:12:32;;;;;;;;;;;;;;;4.73;90.60;99701.41;4501484;31;20386;-70
2021/12/01 07:15:00;;;;;;;;;;;;;;;4.66;91.65;99701.41;4501780;31;20054;-70
2021/12/01 07:17:27;;;;;;;;;;;;;;;4.61;92.02;99698.78;4500917;31;19975;-70
2021/12/01 07:19:55;;;;;;;;;;;;;;;4.63;91.10;99699.69;4501187;31;19979;-69
2021/12/01 07:22:22;;;;;;;;;;;;;;;4.72;90.58;99707.50;4501564;31;20417;-70
2021/12/01 07:24:49;;;;;;;;;;;;;;;4.73;90.97;99706.63;4501491;31;20009;-69
2021/12/01 07:27:17;;;;;;;;;;;;;;;4.88;91.12;99708.41;4501321;31;19976;-70
2021/12/01 07:29:45;;;;;;;;;;;;;;;4.86;90.27;99701.44;4501675;31;19995;-71
2021/12/01 07:32:13;;;;;;;;;;;;;;;4.91;91.91;99712.72;4501422;31;19987;-71
2021/12/01 07:34:41;;;;;;;;;;;;;;;4.97;90.44;99715.34;4501288;31;19991;-70
2021/12/01 07:37:13;;;;;;;;;;;;;;;5.04;90.09;99712.72;4501474;31;20034;-69
2021/12/01 07:39:41;;;;;;;;;;;;;;;5.04;90.30;99710.13;4486794;31;19975;-69
2021/12/01 07:42:08;;;;;;;;;;;;;;;4.94;91.49;99703.16;4501144;31;20579;-71
2021/12/01 07:44:36;;;;;;;;;;;;;;;4.91;91.33;99708.41;4501418;31;19987;-69
2021/12/01 07:47:04;;;;;;;;;;;;;;;4.94;91.48;99708.38;4501110;31;20091;-70
2021/12/01 07:49:31;;;;;;;;;;;;;;;4.97;90.57;99703.16;4501291;31;20586;-70
2021/12/01 07:52:00;;;;;;;;;;;;;;;5.19;91.68;99687.47;4502001;31;20010;-68
2021/12/01 07:54:27;;;;;;;;;;;;;;;5.33;90.14;99680.47;4502111;31;20038;-69
2021/12/01 07:56:55;;;;;;;;;;;;;;;5.39;91.76;99671.78;4501690;31;20027;-69
2021/12/01 07:59:22;;;;;;;;;;;;;;;5.30;93.22;99658.72;4501865;31;20386;-69
2021/12/01 08:01:49;;;;;;;;;;;;;;;5.46;93.94;99649.97;4501981;31;20006;-70
2021/12/01 08:04:17;;;;;;;;;;;;;;;5.72;93.40;99650.78;4501428;31;20022;-69
2021/12/01 08:06:45;;;;;;;;;;;;;;;5.93;92.50;99659.41;4501009;31;19997;-69
2021/12/01 08:09:12;;;;;;;;;;;;;;;6.01;91.34;99662.88;4501225;31;19979;-69
2021/12/01 08:11:40;;;;;;;;;;;;;;;6.03;90.39;99662.84;4500713;31;20697;-68
2021/12/01 08:14:08;;;;;;;;;;;;;;;6.04;89.72;99656.75;4501064;31;20002;-69
2021/12/01 08:16:35;;;;;;;;;;;;;;;6.03;90.89;99660.25;4500677;31;20561;-69
2021/12/01 08:19:04;;;;;;;;;;;;;;;6.06;89.61;99657.63;4500469;31;19979;-69
2021/12/01 08:21:32;;;;;;;;;;;;;;;5.99;90.91;99660.25;4500854;31;20001;-70
2021/12/01 08:24:09;;;;;;;;;;;;;;;6.07;90.94;99670.66;4500099;31;20010;-69
2021/12/01 08:26:37;;;;;;;;;;;;;;;6.06;91.71;99666.31;4500524;31;20329;-69
2021/12/01 08:29:05;;;;;;;;;;;;;;;5.95;92.29;99665.50;4497287;31;20718;-69
2021/12/01 08:31:33;;;;;;;;;;;;;;;5.91;93.18;99669.00;4498249;31;20002;-71
2021/12/01 08:34:00;;;;;;;;;;;;;;;5.87;92.88;99677.72;4500384;31;20013;-70
2021/12/01 08:36:28;;;;;;;;;;;;;;;5.97;91.73;99679.44;4500263;31;19983;-69
2021/12/01 08:38:55;;;;;;;;;;;;;;;5.54;94.06;99684.78;4500213;31;19976;-70
2021/12/01 08:41:23;;;;;;;;;;;;;;;5.59;95.11;99675.22;4500407;31;19987;-70
2021/12/01 08:43:50;;;;;;;;;;;;;;;5.63;94.53;99683.91;4500516;31;20008;-70
2021/12/01 08:46:17;;;;;;;;;;;;;;;5.57;93.47;99687.41;4500196;31;19975;-70
2021/12/01 08:48:45;;;;;;;;;;;;;;;5.32;95.10;99694.41;4502399;31;19997;-71
2021/12/01 08:51:12;;;;;;;;;;;;;;;5.24;96.27;99689.22;4500270;31;19987;-70
2021/12/01 08:53:41;;;;;;;;;;;;;;;5.31;95.89;99687.47;4502466;31;20055;-68
2021/12/01 08:56:09;;;;;;;;;;;;;;;5.42;96.29;99685.69;4502825;31;19979;-70
2021/12/01 08:58:37;;;;;;;;;;;;;;;5.56;95.53;99688.28;4502770;31;19983;-70
2021/12/01 09:01:05;;;;;;;;;;;;;;;5.72;94.41;99673.41;4502614;31;20374;-70
2021/12/01 09:03:33;;;;;;;;;;;;;;;5.59;94.40;99683.03;4502547;31;20001;-69
2021/12/01 09:06:00;;;;;;;;;;;;;;;5.62;94.81;99662.12;4502006;31;20005;-70
2021/12/01 09:08:28;;;;;;;;;;;;;;;5.68;94.90;99667.31;4502250;31;19979;-69
2021/12/01 09:10:56;;;;;;;;;;;;;;;5.93;92.05;99664.63;4501691;31;20773;-71
2021/12/01 09:13:24;;;;;;;;;;;;;;;6.03;90.99;99660.25;4500133;31;20294;-70
2021/12/01 09:15:53;;;;;;;;;;;;;;;5.77;91.41;99652.50;4502037;31;20001;-71
2021/12/01 09:18:20;;;;;;;;;;;;;;;5.96;91.09;99646.31;4487540;31;19975;-70
2021/12/01 09:20:48;;;;;;;;;;;;;;;6.26;89.49;99642.69;4502719;31;20039;-70
2021/12/01 09:23:16;;;;;;;;;;;;;;;6.44;88.77;99650.41;4502086;31;20039;-70
2021/12/01 09:25:44;;;;;;;;;;;;;;;6.28;88.61;99669.69;4500415;31;20464;-70
2021/12/01 09:28:13;;;;;;;;;;;;;;;6.02;89.80;99671.59;4502358;31;20019;-69
2021/12/01 09:30:41;;;;;;;;;;;;;;;6.16;88.97;99669.78;4502301;31;20002;-69
2021/12/01 09:33:08;;;;;;;;;;;;;;;6.26;87.26;99660.13;4502410;31;19995;-69
2021/12/01 09:35:36;;;;;;;;;;;;;;;6.34;85.88;99653.94;4502559;31;20027;-70
2021/12/01 09:38:03;;;;;;;;;;;;;;;6.52;85.68;99663.44;4502451;31;19968;-70
2021/12/01 09:40:31;;;;;;;;;;;;;;;6.67;84.51;99655.44;4502154;31;20001;-70
2021/12/01 09:42:59;;;;;;;;;;;;;;;6.77;84.50;99647.53;4502286;31;19991;-70
2021/12/01 09:45:27;;;;;;;;;;;;;;;6.69;83.73;99640.63;4502532;31;20466;-70
2021/12/01 09:47:55;;;;;;;;;;;;;;;6.81;81.44;99629.16;4502016;31;19979;-69
2021/12/01 09:50:22;;;;;;;;;;;;;;;6.89;81.66;99636.94;4502206;31;19987;-71
2021/12/01 09:52:50;;;;;;;;;;;;;;;6.63;82.20;99627.56;4503066;31;20455;-70
2021/12/01 09:55:18;;;;;;;;;;;;;;;6.60;82.17;99624.97;4502880;31;20282;-69
2021/12/01 09:57:54;;;;;;;;;;;;;;;6.64;83.81;99608.38;4502208;31;19974;-70
2021/12/01 10:00:22;;;;;;;;;;;;;;;6.70;80.89;99610.94;4501959;31;19999;-69
2021/12/01 10:02:49;;;;;;;;;;;;;;;6.71;80.54;99606.56;4487404;31;20030;-69
2021/12/01 10:05:35;;;;;;;;;;;;;;;6.58;80.71;99626.75;4502234;31;19982;-69
2021/12/01 10:08:03;;;;;;;;;;;;;;;6.39;83.10;99612.06;4502100;31;20014;-69
2021/12/01 10:10:35;;;;;;;;;;;;;;;6.47;82.86;99621.59;4496352;31;175866;-69
2021/12/01 10:13:02;;;;;;;;;;;;;;;6.90;81.02;99610.75;4502282;31;20432;-69
2021/12/01 10:15:31;;;;;;;;;;;;;;;6.83;80.36;99609.06;4502012;31;20333;-69
2021/12/01 10:18:27;;;;;;;;;;;;;;;6.97;78.97;99608.09;4501582;31;19992;-70
2021/12/01 10:21:03;;;;;;;;;;;;;;;6.89;78.30;99608.12;4488834;31;20051;-70
2021/12/01 10:23:30;;;;;;;;;;;;;;;6.98;78.57;99604.59;4502353;31;20039;-69
2021/12/01 10:26:27;;;;;;;;;;;;;;;7.01;78.58;99605.41;4502392;31;19987;-70
2021/12/01 10:28:55;;;;;;;;;;;;;;;7.34;78.92;99605.94;4488716;31;20386;-70
2021/12/01 10:31:31;;;;;;;;;;;;;;;7.08;76.97;99611.47;4499181;31;19987;-70
2021/12/01 10:34:15;;;;;;;;;;;;;;;7.41;75.00;99618.09;4501961;31;20013;-71
2021/12/01 10:36:42;;;;;;;;;;;;;;;7.22;75.64;99614.81;4502662;31;19986;-68
2021/12/01 10:39:10;;;;;;;;;;;;;;;7.39;74.97;99617.25;4502691;31;20029;-68
2021/12/01 10:41:41;;;;;;;;;;;;;;;7.21;76.26;99622.66;4501860;31;19984;-68
2021/12/01 10:44:17;;;;;;;;;;;;;;;7.10;76.66;99621.06;4502419;31;20694;-69
2021/12/01 10:46:49;;;;;;;;;;;;;;;7.13;76.16;99610.50;4501771;31;19976;-68
2021/12/01 10:49:31;;;;;;;;;;;;;;;7.16;77.27;99604.37;4501926;31;20345;-69
2021/12/01 10:51:58;;;;;;;;;;;;;;;7.22;76.89;99595.59;4502321;31;19998;-68
2021/12/01 10:54:26;;;;;;;;;;;;;;;7.40;77.62;99580.53;4502447;31;20031;-69
2021/12/01 10:57:12;;;;;;;;;;;;;;;7.30;75.52;99580.66;4502379;31;20656;-69
2021/12/01 10:59:44;;;;;;;;;;;;;;;7.46;75.73;99576.97;4501914;31;19979;-69
2021/12/01 11:02:12;;;;;;;;;;;;;;;7.58;76.33;99584.69;4501635;31;19991;-69
2021/12/01 11:04:44;;;;;;;;;;;;;;;7.31;76.52;99588.47;4501810;31;20639;-69
2021/12/01 11:07:27;;;;;;;;;;;;;;;7.30;76.05;99588.53;4502370;31;20422;-68
2021/12/01 11:10:11;;;;;;;;;;;;;;;7.27;76.18;99588.53;4502129;31;20058;-67
2021/12/01 11:12:39;;;;;;;;;;;;;;;7.47;74.13;99572.59;4502337;31;20013;-69
2021/12/01 11:15:23;;;;;;;;;;;;;;;7.49;74.54;99574.31;4502541;31;20009;-68
2021/12/01 11:17:51;;;;;;;;;;;;;;;7.48;74.65;99571.72;4502439;31;20371;-69
2021/12/01 11:20:39;;;;;;;;;;;;;;;7.45;73.20;99569.97;4502504;31;19991;-68
2021/12/01 11:23:11;;;;;;;;;;;;;;;7.24;75.07;99555.38;4502153;31;20025;-69
2021/12/01 11:25:39;;;;;;;;;;;;;;;7.47;74.79;99544.63;4502258;31;20617;-68
2021/12/01 11:28:13;;;;;;;;;;;;;;;7.79;73.71;99538.94;4502181;31;19971;-68
2021/12/01 11:30:46;;;;;;;;;;;;;;;8.39;71.41;99530.19;4501696;31;20293;-69
2021/12/01 11:33:16;;;;;;;;;;;;;;;9.10;67.25;99521.91;4501383;31;20039;-69
2021/12/01 11:35:45;;;;;;;;;;;;;;;9.08;67.06;99507.91;4501386;31;20330;-68
2021/12/01 11:38:13;;;;;;;;;;;;;;;9.07;68.26;99495.69;4501629;31;20327;-69
2021/12/01 11:40:42;;;;;;;;;;;;;;;9.27;66.40;99472.47;4501502;31;19987;-69
2021/12/01 11:43:11;;;;;;;;;;;;;;;9.56;64.12;99473.59;4501599;31;19991;-69
2021/12/01 11:45:40;;;;;;;;;;;;;;;9.25;65.93;99468.16;4501441;31;19983;-69
2021/12/01 11:48:09;;;;;;;;;;;;;;;9.17;66.17;99465.69;4502075;31;20020;-69
2021/12/01 11:50:42;;;;;;;;;;;;;;;9.25;64.39;99465.53;4502247;31;20017;-68
2021/12/01 11:53:23;;;;;;;;;;;;;;;9.29;65.59;99457.56;4501996;31;20078;-69
2021/12/01 11:55:52;;;;;;;;;;;;;;;9.67;64.58;99465.47;4502369;31;19990;-68
2021/12/01 11:58:44;;;;;;;;;;;;;;;9.70;64.21;99453.13;4502315;31;19975;-68
2021/12/01 12:01:38;;;;;;;;;;;;;;;9.80;62.02;99459.91;4490943;31;20593;-67
2021/12/01 12:04:05;;;;;;;;;;;;;;;9.63;63.42;99455.94;4496576;31;20272;-67
2021/12/01 12:06:35;;;;;;;;;;;;;;;9.79;62.38;99452.06;4501424;31;19987;-67
2021/12/01 12:09:07;;;;;;;;;;;;;;;9.70;64.71;99447.00;4501123;31;20321;-67
2021/12/01 12:11:35;;;;;;;;;;;;;;;9.67;64.80;99441.81;4501020;31;20016;-67
2021/12/01 12:14:04;;;;;;;;;;;;;;;9.49;63.36;99435.19;4500754;31;20311;-67
2021/12/01 12:16:32;;;;;;;;;;;;;;;9.22;64.03;99444.56;4499293;31;20010;-67
2021/12/01 12:19:00;;;;;;;;;;;;;;;8.93;64.94;99437.28;4500636;31;20327;-67
2021/12/01 12:21:49;;;;;;;;;;;;;;;9.28;63.24;99440.03;4500555;31;19991;-67
2021/12/01 12:24:19;;;;;;;;;;;;;;;8.96;63.87;99431.97;4501890;31;20003;-70
2021/12/01 12:26:49;;;;;;;;;;;;;;;8.90;64.19;99426.84;4500666;31;19991;-68
2021/12/01 12:29:18;;;;;;;;;;;;;;;9.11;64.99;99423.75;4502508;31;19975;-70
2021/12/01 12:31:47;;;;;;;;;;;;;;;9.40;64.89;99412.63;4500426;31;20383;-68
2021/12/01 12:34:14;;;;;;;;;;;;;;;9.15;64.23;99420.19;4502547;31;19983;-67
2021/12/01 12:36:42;;;;;;;;;;;;;;;9.45;64.12;99418.62;4502414;31;20022;-67
2021/12/01 12:39:12;;;;;;;;;;;;;;;9.86;62.95;99408.03;4501069;31;19982;-68
2021/12/01 12:42:05;;;;;;;;;;;;;;;9.75;60.89;99411.81;4500799;31;19995;-68
2021/12/01 12:44:33;;;;;;;;;;;;;;;9.53;61.71;99395.66;4498319;31;20676;-68
2021/12/01 12:47:25;;;;;;;;;;;;;;;9.20;61.46;99391.16;4501305;31;20385;-68
2021/12/01 12:49:54;;;;;;;;;;;;;;;9.14;62.83;99386.03;4502274;31;19991;-68
2021/12/01 12:52:24;;;;;;;;;;;;;;;9.19;63.04;99386.81;4501694;31;20335;-68
2021/12/01 12:54:53;;;;;;;;;;;;;;;9.05;62.95;99395.88;4502647;31;20036;-68
2021/12/01 12:57:21;;;;;;;;;;;;;;;8.82;64.14;99391.09;4502070;31;19991;-68
2021/12/01 13:00:11;;;;;;;;;;;;;;;8.75;64.66;99394.72;4502393;31;20038;-68
2021/12/01 13:02:38;;;;;;;;;;;;;;;8.65;64.09;99389.69;4501734;31;19979;-68
2021/12/01 13:05:07;;;;;;;;;;;;;;;8.45;64.29;99382.22;4500588;31;20468;-68
2021/12/01 13:07:37;;;;;;;;;;;;;;;8.43;64.00;99369.13;4502221;31;20742;-68
2021/12/01 13:10:05;;;;;;;;;;;;;;;8.48;64.87;99377.78;4500058;31;20259;-68
2021/12/01 13:12:46;;;;;;;;;;;;;;;8.60;64.62;99372.28;4502460;31;19971;-68
2021/12/01 13:15:24;;;;;;;;;;;;;;;8.46;64.89;99373.44;4501079;31;20002;-68